createdAt,value
2022-12-26T00:00:11.948Z,2.27
2022-12-26T00:03:54.851Z,3.00
2022-12-26T00:07:37.827Z,2.00
2022-12-26T00:11:20.634Z,2.20
2022-12-26T00:15:05.263Z,2.07
2022-12-26T00:18:48.047Z,2.07
2022-12-26T00:22:30.739Z,1.77
2022-12-26T00:26:14.537Z,2.53
2022-12-26T00:29:57.245Z,2.47
2022-12-26T00:33:41.340Z,3.00
2022-12-26T00:37:24.111Z,2.87
2022-12-26T00:41:07.611Z,2.40
2022-12-26T00:44:50.347Z,2.43
2022-12-26T00:48:33.301Z,4.33
2022-12-26T00:52:17.328Z,3.03
2022-12-26T00:56:00.047Z,2.10
2022-12-26T00:59:42.768Z,2.30
2022-12-26T01:03:25.459Z,2.23
2022-12-26T01:07:08.200Z,2.93
2022-12-26T01:10:52.542Z,2.77
2022-12-26T01:14:35.204Z,2.00
2022-12-26T01:18:18.101Z,2.00
2022-12-26T01:22:00.863Z,3.17
2022-12-26T01:26:14.843Z,5.10
2022-12-26T01:29:47.747Z,1.80
2022-12-26T01:33:30.461Z,1.97
2022-12-26T01:37:14.176Z,1.93
2022-12-26T01:41:10.864Z,1.63
2022-12-26T01:45:00.586Z,2.13
2022-12-26T01:48:43.341Z,1.70
2022-12-26T01:52:30.727Z,1.87
2022-12-26T01:56:16.286Z,2.37
2022-12-26T02:00:02.630Z,1.83
2022-12-26T02:04:05.226Z,2.03
2022-12-26T02:07:48.280Z,1.70
2022-12-26T02:11:36.056Z,1.30
2022-12-26T02:15:20.189Z,2.00
2022-12-26T02:19:02.954Z,1.10
2022-12-26T02:23:19.593Z,1.80
2022-12-26T02:27:23.757Z,1.53
2022-12-26T02:31:10.457Z,2.33
2022-12-26T02:34:58.762Z,1.47
2022-12-26T02:38:48.803Z,1.10
2022-12-26T02:42:39.127Z,1.20
2022-12-26T02:46:47.756Z,2.13
2022-12-26T02:50:54.812Z,2.10
2022-12-26T02:54:57.673Z,1.33
2022-12-26T02:59:01.625Z,1.90
2022-12-26T03:03:06.565Z,2.63
2022-12-26T03:07:13.444Z,1.40
2022-12-26T03:11:14.946Z,1.83
2022-12-26T03:14:59.697Z,1.50
2022-12-26T03:18:59.281Z,2.00
2022-12-26T03:22:45.284Z,2.07
2022-12-26T03:26:43.901Z,1.67
2022-12-26T03:30:44.534Z,1.57
2022-12-26T03:34:29.207Z,1.47
2022-12-26T03:38:15.087Z,3.13
2022-12-26T03:42:19.084Z,1.43
2022-12-26T03:46:31.929Z,1.40
2022-12-26T03:50:48.200Z,1.40
2022-12-26T03:54:53.381Z,0.97
2022-12-26T03:58:57.765Z,1.77
2022-12-26T04:02:59.232Z,1.20
2022-12-26T04:07:05.167Z,1.43
2022-12-26T04:11:08.119Z,1.43
2022-12-26T04:15:12.421Z,1.30
2022-12-26T04:19:22.339Z,2.03
2022-12-26T04:23:27.771Z,2.10
2022-12-26T04:27:31.914Z,1.63
2022-12-26T04:31:35.600Z,1.00
2022-12-26T04:35:39.724Z,1.50
2022-12-26T04:39:44.554Z,1.20
2022-12-26T04:43:51.311Z,1.10
2022-12-26T04:47:34.778Z,1.37
2022-12-26T04:51:16.440Z,1.80
2022-12-26T04:55:00.515Z,1.40
2022-12-26T04:58:43.181Z,1.53
2022-12-26T05:02:43.585Z,1.40
2022-12-26T05:06:43.976Z,1.80
2022-12-26T05:10:29.090Z,1.43
2022-12-26T05:14:11.808Z,1.80
2022-12-26T05:18:12.163Z,1.50
2022-12-26T05:22:12.913Z,2.27
2022-12-26T05:26:14.171Z,1.43
2022-12-26T05:29:56.877Z,4.00
2022-12-26T05:33:57.319Z,1.50
2022-12-26T05:37:40.023Z,1.03
2022-12-26T05:41:24.269Z,1.60
2022-12-26T05:45:08.106Z,1.40
2022-12-26T05:48:50.742Z,2.10
2022-12-26T05:52:33.549Z,2.93
2022-12-26T05:56:17.896Z,2.03
2022-12-26T06:00:01.938Z,1.83
2022-12-26T06:03:47.522Z,2.00
2022-12-26T06:07:30.362Z,1.87
2022-12-26T06:11:14.229Z,1.83
2022-12-26T06:14:57.011Z,1.30
2022-12-26T06:18:41.549Z,1.90
2022-12-26T06:22:24.264Z,1.47
2022-12-26T06:26:09.107Z,4.37
2022-12-26T06:29:51.774Z,1.63
2022-12-26T06:33:34.553Z,2.03
2022-12-26T06:37:18.592Z,2.67
2022-12-26T06:41:01.283Z,2.63
2022-12-26T06:44:43.956Z,2.00
2022-12-26T06:48:27.131Z,1.90
2022-12-26T06:52:11.150Z,3.57
2022-12-26T06:55:55.167Z,3.17
2022-12-26T06:59:37.861Z,3.57
2022-12-26T07:03:20.494Z,2.20
2022-12-26T07:07:03.406Z,1.70
2022-12-26T07:10:46.053Z,2.17
2022-12-26T07:14:30.116Z,1.90
2022-12-26T07:18:12.767Z,1.73
2022-12-26T07:21:55.438Z,1.63
2022-12-26T07:25:38.163Z,1.57
2022-12-26T07:29:21.872Z,1.40
2022-12-26T07:33:05.927Z,1.63
2022-12-26T07:36:48.918Z,1.90
2022-12-26T07:40:31.582Z,1.47
2022-12-26T07:44:14.367Z,1.30
2022-12-26T07:47:57.319Z,1.30
2022-12-26T07:51:42.168Z,1.73
2022-12-26T07:55:24.809Z,4.17
2022-12-26T07:59:07.472Z,2.70
2022-12-26T08:02:51.594Z,2.23
2022-12-26T08:06:34.381Z,1.80
2022-12-26T08:10:18.905Z,2.03
2022-12-26T08:14:02.017Z,1.80
2022-12-26T08:17:44.686Z,3.17
2022-12-26T08:21:27.404Z,2.13
2022-12-26T08:25:11.859Z,1.87
2022-12-26T08:28:57.195Z,2.17
2022-12-26T08:32:42.499Z,3.50
2022-12-26T08:36:27.100Z,2.17
2022-12-26T08:40:11.166Z,2.97
2022-12-26T08:44:26.346Z,2.50
2022-12-26T08:47:59.558Z,2.90
2022-12-26T08:51:42.263Z,2.87
2022-12-26T08:55:24.968Z,1.90
2022-12-26T08:59:09.028Z,3.70
2022-12-26T09:02:51.861Z,3.73
2022-12-26T09:06:35.955Z,4.03
2022-12-26T09:10:18.845Z,2.37
2022-12-26T09:14:03.035Z,2.10
2022-12-26T09:17:47.076Z,2.43
2022-12-26T09:21:30.511Z,2.93
2022-12-26T09:25:13.153Z,2.60
2022-12-26T09:28:56.305Z,1.93
2022-12-26T09:32:39.035Z,3.40
2022-12-26T09:36:25.302Z,1.93
2022-12-26T09:40:11.602Z,1.53
2022-12-26T09:44:02.320Z,3.27
2022-12-26T09:47:53.708Z,2.10
2022-12-26T09:51:39.064Z,1.80
2022-12-26T09:55:37.067Z,2.77
2022-12-26T09:59:20.801Z,2.73
2022-12-26T10:03:03.525Z,2.43
2022-12-26T10:06:52.692Z,3.30
2022-12-26T10:10:42.658Z,4.63
2022-12-26T10:14:34.123Z,3.13
2022-12-26T10:18:27.151Z,2.30
2022-12-26T10:22:30.161Z,2.10
2022-12-26T10:26:15.534Z,2.13
2022-12-26T10:30:01.729Z,2.30
2022-12-26T10:33:48.261Z,1.80
2022-12-26T10:37:36.943Z,3.27
2022-12-26T10:41:24.605Z,2.47
2022-12-26T10:45:15.799Z,0.93
2022-12-26T10:48:58.887Z,2.13
2022-12-26T10:52:43.119Z,1.60
2022-12-26T10:56:26.498Z,2.30
2022-12-26T11:00:16.276Z,2.43
2022-12-26T11:04:00.198Z,1.93
2022-12-26T11:07:48.648Z,1.27
2022-12-26T11:11:45.987Z,1.13
2022-12-26T11:15:32.270Z,2.80
2022-12-26T11:19:27.794Z,1.90
2022-12-26T11:23:25.605Z,1.70
2022-12-26T11:27:20.166Z,2.30
2022-12-26T11:31:05.764Z,1.50
2022-12-26T11:34:49.550Z,1.30
2022-12-26T11:38:44.211Z,3.67
2022-12-26T11:42:27.813Z,2.73
2022-12-26T11:46:10.563Z,1.57
2022-12-26T11:49:56.179Z,3.20
2022-12-26T11:53:40.586Z,1.60
2022-12-26T11:57:29.049Z,1.53
2022-12-26T12:01:16.889Z,2.70
2022-12-26T12:05:05.560Z,2.57
2022-12-26T12:09:02.207Z,5.23
2022-12-26T12:12:55.053Z,4.33
2022-12-26T12:16:52.133Z,6.83
2022-12-26T12:20:40.904Z,5.57
2022-12-26T12:24:38.552Z,4.00
2022-12-26T12:28:32.759Z,2.83
2022-12-26T12:32:21.583Z,3.00
2022-12-26T12:36:10.540Z,2.93
2022-12-26T12:40:08.914Z,3.93
2022-12-26T12:43:56.651Z,5.43
2022-12-26T12:47:48.024Z,6.60
2022-12-26T12:51:35.961Z,6.33
2022-12-26T12:55:44.533Z,6.30
2022-12-26T12:59:33.267Z,5.13
2022-12-26T13:03:25.156Z,5.70
2022-12-26T13:07:17.613Z,7.17
2022-12-26T13:11:06.284Z,7.67
2022-12-26T13:14:54.265Z,4.73
2022-12-26T13:18:39.946Z,5.90
2022-12-26T13:22:26.931Z,7.30
2022-12-26T13:26:14.058Z,7.10
2022-12-26T13:29:58.869Z,5.90
2022-12-26T13:33:43.453Z,7.07
2022-12-26T13:37:57.299Z,4.83
2022-12-26T13:42:05.035Z,8.90
2022-12-26T13:45:51.818Z,6.77
2022-12-26T13:49:37.196Z,4.83
2022-12-26T13:53:32.502Z,5.37
2022-12-26T13:57:40.291Z,8.37
2022-12-26T14:01:36.091Z,6.27
2022-12-26T14:05:25.444Z,3.33
2022-12-26T14:09:32.830Z,5.47
2022-12-26T14:13:51.206Z,4.73
2022-12-26T14:17:41.731Z,5.97
2022-12-26T14:21:49.315Z,4.80
2022-12-26T14:25:39.942Z,4.37
2022-12-26T14:29:34.021Z,6.37
2022-12-26T14:33:25.959Z,4.70
2022-12-26T14:37:18.084Z,5.30
2022-12-26T14:41:03.209Z,5.77
2022-12-26T14:44:47.417Z,4.27
2022-12-26T14:49:00.933Z,4.83
2022-12-26T14:52:44.514Z,7.70
2022-12-26T14:56:36.136Z,7.57
2022-12-26T15:00:32.530Z,4.87
2022-12-26T15:04:25.724Z,5.33
2022-12-26T15:08:20.140Z,4.83
2022-12-26T15:12:15.270Z,4.57
2022-12-26T15:16:20.035Z,4.07
2022-12-26T15:20:32.108Z,3.50
2022-12-26T15:25:17.484Z,3.53
2022-12-26T15:29:23.970Z,5.40
2022-12-26T15:33:11.857Z,3.67
2022-12-26T15:37:00.267Z,3.83
2022-12-26T15:40:45.978Z,4.13
2022-12-26T15:44:32.207Z,3.43
2022-12-26T15:48:27.359Z,3.43
2022-12-26T15:52:15.967Z,3.40
2022-12-26T15:56:24.034Z,2.67
2022-12-26T16:00:13.102Z,4.73
2022-12-26T16:03:57.959Z,2.37
2022-12-26T16:07:42.574Z,2.23
2022-12-26T16:11:28.526Z,1.93
2022-12-26T16:15:17.715Z,2.60
2022-12-26T16:19:16.228Z,1.70
2022-12-26T16:22:58.963Z,1.97
2022-12-26T16:26:43.551Z,1.57
2022-12-26T16:30:28.154Z,1.33
2022-12-26T16:34:16.573Z,2.63
2022-12-26T16:38:00.556Z,2.37
2022-12-26T16:42:00.122Z,1.97
2022-12-26T16:45:42.982Z,1.67
2022-12-26T16:49:27.387Z,0.80
2022-12-26T16:53:12.866Z,1.47
2022-12-26T16:57:01.696Z,3.93
2022-12-26T17:01:03.738Z,1.80
2022-12-26T17:04:58.276Z,1.30
2022-12-26T17:08:43.547Z,1.37
2022-12-26T17:12:28.553Z,1.53
2022-12-26T17:16:11.445Z,2.43
2022-12-26T17:19:57.623Z,1.50
2022-12-26T17:23:41.331Z,1.43
2022-12-26T17:27:25.663Z,1.30
2022-12-26T17:31:14.205Z,1.83
2022-12-26T17:35:01.123Z,1.47
2022-12-26T17:38:45.450Z,1.27
2022-12-26T17:42:28.146Z,1.67
2022-12-26T17:46:13.756Z,1.40
2022-12-26T17:49:58.476Z,1.33
2022-12-26T17:53:42.261Z,1.40
2022-12-26T17:57:26.506Z,1.30
2022-12-26T18:01:09.893Z,1.47
2022-12-26T18:04:53.800Z,1.30
2022-12-26T18:08:40.343Z,1.53
2022-12-26T18:12:23.087Z,0.87
2022-12-26T18:16:07.529Z,0.57
2022-12-26T18:19:50.359Z,1.13
2022-12-26T18:23:33.228Z,2.13
2022-12-26T18:27:22.739Z,0.97
2022-12-26T18:31:05.749Z,2.83
2022-12-26T18:34:48.458Z,1.00
2022-12-26T18:38:31.199Z,1.17
2022-12-26T18:42:14.566Z,1.40
2022-12-26T18:46:01.030Z,2.63
2022-12-26T18:49:44.496Z,7.30
2022-12-26T18:53:29.763Z,6.67
2022-12-26T18:57:17.610Z,1.83
2022-12-26T19:01:03.527Z,1.53
2022-12-26T19:04:48.384Z,1.10
2022-12-26T19:08:31.714Z,0.97
2022-12-26T19:12:14.811Z,1.50
2022-12-26T19:15:57.534Z,1.33
2022-12-26T19:19:43.511Z,1.60
2022-12-26T19:23:26.193Z,0.97
2022-12-26T19:27:08.922Z,1.30
2022-12-26T19:30:51.599Z,1.17
2022-12-26T19:34:34.316Z,1.90
2022-12-26T19:38:18.372Z,1.47
2022-12-26T19:42:01.056Z,1.57
2022-12-26T19:45:43.798Z,1.77
2022-12-26T19:49:33.418Z,1.33
2022-12-26T19:53:17.910Z,1.30
2022-12-26T19:57:00.641Z,0.93
2022-12-26T20:00:43.813Z,1.60
2022-12-26T20:04:26.798Z,1.80
2022-12-26T20:08:10.317Z,1.03
2022-12-26T20:11:54.607Z,0.97
2022-12-26T20:15:37.260Z,2.73
2022-12-26T20:19:20.246Z,0.70
2022-12-26T20:23:02.989Z,0.67
2022-12-26T20:26:45.852Z,0.87
2022-12-26T20:30:30.016Z,1.07
2022-12-26T20:34:12.829Z,1.53
2022-12-26T20:37:55.503Z,0.43
2022-12-26T20:41:38.535Z,0.37
2022-12-26T20:45:21.237Z,0.70
2022-12-26T20:49:05.725Z,0.70
2022-12-26T20:52:48.527Z,0.70
2022-12-26T20:56:31.211Z,0.40
2022-12-26T21:00:15.137Z,0.83
2022-12-26T21:03:58.382Z,0.60
2022-12-26T21:07:42.414Z,0.63
2022-12-26T21:11:27.086Z,1.23
2022-12-26T21:15:10.692Z,1.13
2022-12-26T21:18:53.675Z,0.80
2022-12-26T21:22:36.325Z,0.50
2022-12-26T21:26:20.402Z,0.60
2022-12-26T21:30:03.128Z,0.77
2022-12-26T21:33:45.812Z,2.40
2022-12-26T21:37:45.739Z,0.80
2022-12-26T21:41:29.784Z,0.73
2022-12-26T21:45:12.718Z,0.37
2022-12-26T21:48:55.368Z,0.87
2022-12-26T21:52:38.063Z,0.87
2022-12-26T21:56:20.808Z,1.23
2022-12-26T22:00:05.472Z,1.73
2022-12-26T22:04:05.734Z,1.97
2022-12-26T22:07:48.967Z,0.67
2022-12-26T22:11:49.384Z,1.47
2022-12-26T22:15:51.069Z,0.40
2022-12-26T22:19:33.822Z,1.13
2022-12-26T22:23:16.488Z,0.80
2022-12-26T22:26:59.205Z,0.40
2022-12-26T22:30:48.955Z,1.43
2022-12-26T22:34:31.627Z,0.53
2022-12-26T22:38:14.393Z,0.90
2022-12-26T22:42:02.493Z,1.70
2022-12-26T22:45:45.470Z,1.93
2022-12-26T22:49:29.550Z,0.93
2022-12-26T22:53:12.929Z,0.90
2022-12-26T22:56:55.720Z,0.93
2022-12-26T23:00:38.415Z,0.50
2022-12-26T23:04:21.682Z,1.80
2022-12-26T23:08:07.155Z,0.93
2022-12-26T23:12:11.521Z,0.67
2022-12-26T23:15:57.653Z,2.50
2022-12-26T23:20:02.711Z,2.17
2022-12-26T23:24:03.973Z,0.50
2022-12-26T23:28:04.286Z,0.70
2022-12-26T23:31:46.965Z,1.33
2022-12-26T23:35:30.072Z,2.20
2022-12-26T23:39:14.248Z,2.80
2022-12-26T23:42:57.166Z,1.17
2022-12-26T23:46:41.089Z,1.00
2022-12-26T23:50:23.889Z,0.90
2022-12-26T23:54:06.752Z,1.30
2022-12-26T23:57:50.909Z,0.80
